sensor_id;sensor_type;location;lat;lon;timestamp;P1;durP1;ratioP1;P2;durP2;ratioP2
84133;SDS011;74235;48.688;9.708;2024-03-08T00:00:13;0.70;;;0.70;;
84133;SDS011;74235;48.688;9.708;2024-03-08T00:02:44;1.58;;;1.15;;
84133;SDS011;74235;48.688;9.708;2024-03-08T00:05:15;1.55;;;1.30;;
84133;SDS011;74235;48.688;9.708;2024-03-08T00:07:43;1.52;;;1.17;;
84133;SDS011;74235;48.688;9.708;2024-03-08T00:10:11;1.77;;;1.35;;
84133;SDS011;74235;48.688;9.708;2024-03-08T00:12:44;1.33;;;1.23;;
84133;SDS011;74235;48.688;9.708;2024-03-08T00:15:13;1.30;;;1.20;;
84133;SDS011;74235;48.688;9.708;2024-03-08T00:17:43;1.35;;;1.20;;
84133;SDS011;74235;48.688;9.708;2024-03-08T00:20:12;2.10;;;1.60;;
84133;SDS011;74235;48.688;9.708;2024-03-08T00:22:41;1.33;;;1.10;;
84133;SDS011;74235;48.688;9.708;2024-03-08T00:25:09;2.00;;;1.40;;
84133;SDS011;74235;48.688;9.708;2024-03-08T00:27:37;1.30;;;1.20;;
84133;SDS011;74235;48.688;9.708;2024-03-08T00:30:07;1.23;;;1.13;;
84133;SDS011;74235;48.688;9.708;2024-03-08T00:32:36;1.83;;;1.27;;
84133;SDS011;74235;48.688;9.708;2024-03-08T00:35:05;1.30;;;1.20;;
84133;SDS011;74235;48.688;9.708;2024-03-08T00:37:36;1.13;;;0.90;;
84133;SDS011;74235;48.688;9.708;2024-03-08T00:40:04;1.15;;;0.88;;
84133;SDS011;74235;48.688;9.708;2024-03-08T00:42:34;1.25;;;1.15;;
84133;SDS011;74235;48.688;9.708;2024-03-08T00:45:02;1.23;;;1.13;;
84133;SDS011;74235;48.688;9.708;2024-03-08T00:47:32;1.27;;;1.17;;
84133;SDS011;74235;48.688;9.708;2024-03-08T00:50:00;1.83;;;1.42;;
84133;SDS011;74235;48.688;9.708;2024-03-08T00:52:31;1.10;;;1.05;;
84133;SDS011;74235;48.688;9.708;2024-03-08T00:54:59;1.75;;;1.38;;
84133;SDS011;74235;48.688;9.708;2024-03-08T00:57:27;1.35;;;1.25;;
84133;SDS011;74235;48.688;9.708;2024-03-08T00:59:55;1.35;;;1.20;;
84133;SDS011;74235;48.688;9.708;2024-03-08T01:02:23;1.38;;;1.23;;
84133;SDS011;74235;48.688;9.708;2024-03-08T01:04:52;1.08;;;0.95;;
84133;SDS011;74235;48.688;9.708;2024-03-08T01:07:20;1.40;;;1.20;;
84133;SDS011;74235;48.688;9.708;2024-03-08T01:09:48;1.30;;;1.20;;
84133;SDS011;74235;48.688;9.708;2024-03-08T01:14:43;1.83;;;1.30;;
84133;SDS011;74235;48.688;9.708;2024-03-08T01:17:11;1.70;;;1.20;;
84133;SDS011;74235;48.688;9.708;2024-03-08T01:19:40;1.33;;;1.05;;
84133;SDS011;74235;48.688;9.708;2024-03-08T01:22:09;1.40;;;1.30;;
84133;SDS011;74235;48.688;9.708;2024-03-08T01:24:36;1.15;;;1.05;;
84133;SDS011;74235;48.688;9.708;2024-03-08T01:27:04;1.15;;;1.05;;
84133;SDS011;74235;48.688;9.708;2024-03-08T01:29:32;1.23;;;1.05;;
84133;SDS011;74235;48.688;9.708;2024-03-08T01:32:00;1.35;;;1.25;;
84133;SDS011;74235;48.688;9.708;2024-03-08T01:34:29;1.10;;;0.93;;
84133;SDS011;74235;48.688;9.708;2024-03-08T01:36:56;1.23;;;1.13;;
84133;SDS011;74235;48.688;9.708;2024-03-08T01:39:26;1.30;;;1.20;;
84133;SDS011;74235;48.688;9.708;2024-03-08T01:41:53;1.25;;;1.15;;
84133;SDS011;74235;48.688;9.708;2024-03-08T01:44:21;1.13;;;1.08;;
84133;SDS011;74235;48.688;9.708;2024-03-08T01:49:18;1.95;;;1.33;;
84133;SDS011;74235;48.688;9.708;2024-03-08T01:51:48;1.27;;;1.17;;
84133;SDS011;74235;48.688;9.708;2024-03-08T01:54:17;1.30;;;1.20;;
84133;SDS011;74235;48.688;9.708;2024-03-08T01:56:48;1.00;;;0.95;;
84133;SDS011;74235;48.688;9.708;2024-03-08T01:59:16;1.55;;;1.30;;
84133;SDS011;74235;48.688;9.708;2024-03-08T02:01:44;1.10;;;1.00;;
84133;SDS011;74235;48.688;9.708;2024-03-08T02:04:12;1.58;;;1.10;;
84133;SDS011;74235;48.688;9.708;2024-03-08T02:06:40;1.27;;;1.17;;
84133;SDS011;74235;48.688;9.708;2024-03-08T02:09:08;0.82;;;0.82;;
84133;SDS011;74235;48.688;9.708;2024-03-08T02:11:35;0.82;;;0.82;;
84133;SDS011;74235;48.688;9.708;2024-03-08T02:14:05;1.35;;;1.25;;
84133;SDS011;74235;48.688;9.708;2024-03-08T02:16:34;1.88;;;1.30;;
84133;SDS011;74235;48.688;9.708;2024-03-08T02:21:30;1.00;;;0.90;;
84133;SDS011;74235;48.688;9.708;2024-03-08T02:23:58;1.13;;;1.02;;
84133;SDS011;74235;48.688;9.708;2024-03-08T02:26:26;1.20;;;1.10;;
84133;SDS011;74235;48.688;9.708;2024-03-08T02:28:55;1.27;;;1.17;;
84133;SDS011;74235;48.688;9.708;2024-03-08T02:31:22;1.35;;;1.25;;
84133;SDS011;74235;48.688;9.708;2024-03-08T02:36:18;1.70;;;1.50;;
84133;SDS011;74235;48.688;9.708;2024-03-08T02:38:47;1.15;;;1.02;;
84133;SDS011;74235;48.688;9.708;2024-03-08T02:41:15;1.58;;;1.20;;
84133;SDS011;74235;48.688;9.708;2024-03-08T02:46:11;1.13;;;1.02;;
84133;SDS011;74235;48.688;9.708;2024-03-08T02:48:39;1.45;;;1.17;;
84133;SDS011;74235;48.688;9.708;2024-03-08T02:51:07;1.58;;;1.20;;
84133;SDS011;74235;48.688;9.708;2024-03-08T02:53:35;1.42;;;1.10;;
84133;SDS011;74235;48.688;9.708;2024-03-08T02:56:04;0.73;;;0.73;;
84133;SDS011;74235;48.688;9.708;2024-03-08T02:58:35;1.42;;;1.20;;
84133;SDS011;74235;48.688;9.708;2024-03-08T03:03:30;0.75;;;0.75;;
84133;SDS011;74235;48.688;9.708;2024-03-08T03:05:59;1.15;;;1.05;;
84133;SDS011;74235;48.688;9.708;2024-03-08T03:08:28;1.20;;;1.10;;
84133;SDS011;74235;48.688;9.708;2024-03-08T03:10:56;1.05;;;0.95;;
84133;SDS011;74235;48.688;9.708;2024-03-08T03:13:25;1.48;;;1.23;;
84133;SDS011;74235;48.688;9.708;2024-03-08T03:15:53;1.25;;;1.02;;
84133;SDS011;74235;48.688;9.708;2024-03-08T03:18:20;1.23;;;1.13;;
84133;SDS011;74235;48.688;9.708;2024-03-08T03:20:51;1.85;;;1.50;;
84133;SDS011;74235;48.688;9.708;2024-03-08T03:23:18;1.13;;;0.98;;
84133;SDS011;74235;48.688;9.708;2024-03-08T03:25:48;1.58;;;1.33;;
84133;SDS011;74235;48.688;9.708;2024-03-08T03:28:16;1.20;;;1.10;;
84133;SDS011;74235;48.688;9.708;2024-03-08T03:30:47;1.42;;;1.17;;
84133;SDS011;74235;48.688;9.708;2024-03-08T03:33:14;1.33;;;1.20;;
84133;SDS011;74235;48.688;9.708;2024-03-08T03:35:44;1.40;;;1.17;;
84133;SDS011;74235;48.688;9.708;2024-03-08T03:38:11;1.20;;;1.00;;
84133;SDS011;74235;48.688;9.708;2024-03-08T03:40:41;1.20;;;1.05;;
84133;SDS011;74235;48.688;9.708;2024-03-08T03:43:09;1.83;;;1.38;;
84133;SDS011;74235;48.688;9.708;2024-03-08T03:45:39;1.23;;;1.13;;
84133;SDS011;74235;48.688;9.708;2024-03-08T03:48:09;1.73;;;1.35;;
84133;SDS011;74235;48.688;9.708;2024-03-08T03:50:38;1.25;;;1.02;;
84133;SDS011;74235;48.688;9.708;2024-03-08T03:53:07;1.48;;;1.13;;
84133;SDS011;74235;48.688;9.708;2024-03-08T03:55:37;1.50;;;1.40;;
84133;SDS011;74235;48.688;9.708;2024-03-08T03:58:07;1.25;;;0.98;;
84133;SDS011;74235;48.688;9.708;2024-03-08T04:00:38;1.45;;;1.35;;
84133;SDS011;74235;48.688;9.708;2024-03-08T04:03:06;1.35;;;1.25;;
84133;SDS011;74235;48.688;9.708;2024-03-08T04:05:36;1.33;;;1.10;;
84133;SDS011;74235;48.688;9.708;2024-03-08T04:08:04;1.17;;;1.13;;
84133;SDS011;74235;48.688;9.708;2024-03-08T04:10:33;1.73;;;1.30;;
84133;SDS011;74235;48.688;9.708;2024-03-08T04:13:01;1.13;;;0.95;;
84133;SDS011;74235;48.688;9.708;2024-03-08T04:15:28;1.08;;;1.00;;
84133;SDS011;74235;48.688;9.708;2024-03-08T04:20:25;1.20;;;1.10;;
84133;SDS011;74235;48.688;9.708;2024-03-08T04:25:21;1.30;;;1.20;;
84133;SDS011;74235;48.688;9.708;2024-03-08T04:30:16;1.77;;;1.08;;
84133;SDS011;74235;48.688;9.708;2024-03-08T04:32:45;1.23;;;1.13;;
84133;SDS011;74235;48.688;9.708;2024-03-08T04:35:13;1.40;;;1.27;;
84133;SDS011;74235;48.688;9.708;2024-03-08T04:37:41;1.52;;;1.30;;
84133;SDS011;74235;48.688;9.708;2024-03-08T04:40:11;1.40;;;1.30;;
84133;SDS011;74235;48.688;9.708;2024-03-08T04:42:39;1.30;;;1.20;;
84133;SDS011;74235;48.688;9.708;2024-03-08T04:45:10;1.15;;;1.00;;
84133;SDS011;74235;48.688;9.708;2024-03-08T04:47:41;1.23;;;1.10;;
84133;SDS011;74235;48.688;9.708;2024-03-08T04:50:09;1.80;;;1.20;;
84133;SDS011;74235;48.688;9.708;2024-03-08T04:52:37;1.50;;;1.20;;
84133;SDS011;74235;48.688;9.708;2024-03-08T04:57:34;0.88;;;0.88;;
84133;SDS011;74235;48.688;9.708;2024-03-08T05:00:02;1.25;;;1.10;;
84133;SDS011;74235;48.688;9.708;2024-03-08T05:02:31;1.85;;;1.40;;
84133;SDS011;74235;48.688;9.708;2024-03-08T05:07:28;1.33;;;1.10;;
84133;SDS011;74235;48.688;9.708;2024-03-08T05:09:55;1.52;;;1.23;;
84133;SDS011;74235;48.688;9.708;2024-03-08T05:12:23;1.30;;;1.20;;
84133;SDS011;74235;48.688;9.708;2024-03-08T05:14:53;1.33;;;1.08;;
84133;SDS011;74235;48.688;9.708;2024-03-08T05:17:21;1.42;;;1.30;;
84133;SDS011;74235;48.688;9.708;2024-03-08T05:19:51;1.60;;;1.33;;
84133;SDS011;74235;48.688;9.708;2024-03-08T05:22:19;1.58;;;1.38;;
84133;SDS011;74235;48.688;9.708;2024-03-08T05:27:14;1.30;;;1.20;;
84133;SDS011;74235;48.688;9.708;2024-03-08T05:29:41;1.52;;;1.20;;
84133;SDS011;74235;48.688;9.708;2024-03-08T05:34:39;1.50;;;1.30;;
84133;SDS011;74235;48.688;9.708;2024-03-08T05:39:34;1.80;;;1.40;;
84133;SDS011;74235;48.688;9.708;2024-03-08T05:44:29;1.65;;;1.42;;
84133;SDS011;74235;48.688;9.708;2024-03-08T05:46:58;1.92;;;1.35;;
84133;SDS011;74235;48.688;9.708;2024-03-08T05:49:27;1.40;;;1.20;;
84133;SDS011;74235;48.688;9.708;2024-03-08T05:51:55;1.60;;;1.50;;
84133;SDS011;74235;48.688;9.708;2024-03-08T05:54:23;1.50;;;1.38;;
84133;SDS011;74235;48.688;9.708;2024-03-08T05:56:52;1.20;;;1.10;;
84133;SDS011;74235;48.688;9.708;2024-03-08T05:59:20;1.63;;;1.40;;
84133;SDS011;74235;48.688;9.708;2024-03-08T06:01:50;1.90;;;1.50;;
84133;SDS011;74235;48.688;9.708;2024-03-08T06:04:18;2.00;;;1.40;;
84133;SDS011;74235;48.688;9.708;2024-03-08T06:06:47;1.33;;;1.13;;
84133;SDS011;74235;48.688;9.708;2024-03-08T06:09:18;1.60;;;1.30;;
84133;SDS011;74235;48.688;9.708;2024-03-08T06:11:51;1.48;;;1.30;;
84133;SDS011;74235;48.688;9.708;2024-03-08T06:14:21;1.35;;;1.25;;
84133;SDS011;74235;48.688;9.708;2024-03-08T06:19:19;1.48;;;1.38;;
84133;SDS011;74235;48.688;9.708;2024-03-08T06:24:15;1.70;;;1.30;;
84133;SDS011;74235;48.688;9.708;2024-03-08T06:26:43;1.55;;;1.20;;
84133;SDS011;74235;48.688;9.708;2024-03-08T06:31:40;1.20;;;1.08;;
84133;SDS011;74235;48.688;9.708;2024-03-08T06:34:08;1.52;;;1.42;;
84133;SDS011;74235;48.688;9.708;2024-03-08T06:36:36;2.15;;;1.63;;
84133;SDS011;74235;48.688;9.708;2024-03-08T06:39:07;1.88;;;1.45;;
84133;SDS011;74235;48.688;9.708;2024-03-08T06:41:37;1.65;;;1.30;;
84133;SDS011;74235;48.688;9.708;2024-03-08T06:44:05;2.15;;;1.70;;
84133;SDS011;74235;48.688;9.708;2024-03-08T06:46:35;1.83;;;1.30;;
84133;SDS011;74235;48.688;9.708;2024-03-08T06:49:03;2.00;;;1.40;;
84133;SDS011;74235;48.688;9.708;2024-03-08T06:51:31;1.80;;;1.48;;
84133;SDS011;74235;48.688;9.708;2024-03-08T06:53:59;1.88;;;1.60;;
84133;SDS011;74235;48.688;9.708;2024-03-08T06:56:29;1.83;;;1.48;;
84133;SDS011;74235;48.688;9.708;2024-03-08T06:58:57;2.00;;;1.30;;
84133;SDS011;74235;48.688;9.708;2024-03-08T07:03:52;1.55;;;1.23;;
84133;SDS011;74235;48.688;9.708;2024-03-08T07:06:19;1.60;;;1.40;;
84133;SDS011;74235;48.688;9.708;2024-03-08T07:08:48;3.40;;;1.60;;
84133;SDS011;74235;48.688;9.708;2024-03-08T07:11:16;1.42;;;1.33;;
84133;SDS011;74235;48.688;9.708;2024-03-08T07:13:47;1.95;;;1.67;;
84133;SDS011;74235;48.688;9.708;2024-03-08T07:16:14;1.63;;;1.40;;
84133;SDS011;74235;48.688;9.708;2024-03-08T07:18:43;1.45;;;1.35;;
84133;SDS011;74235;48.688;9.708;2024-03-08T07:21:11;1.75;;;1.33;;
84133;SDS011;74235;48.688;9.708;2024-03-08T07:23:39;2.28;;;1.60;;
84133;SDS011;74235;48.688;9.708;2024-03-08T07:26:25;1.60;;;1.33;;
84133;SDS011;74235;48.688;9.708;2024-03-08T07:28:54;1.40;;;1.30;;
84133;SDS011;74235;48.688;9.708;2024-03-08T07:31:22;2.05;;;1.55;;
84133;SDS011;74235;48.688;9.708;2024-03-08T07:33:53;2.70;;;1.50;;
84133;SDS011;74235;48.688;9.708;2024-03-08T07:36:20;1.70;;;1.42;;
84133;SDS011;74235;48.688;9.708;2024-03-08T07:38:49;1.63;;;1.27;;
84133;SDS011;74235;48.688;9.708;2024-03-08T07:41:17;1.48;;;1.30;;
84133;SDS011;74235;48.688;9.708;2024-03-08T07:43:45;1.67;;;1.33;;
84133;SDS011;74235;48.688;9.708;2024-03-08T07:46:14;2.15;;;1.60;;
84133;SDS011;74235;48.688;9.708;2024-03-08T07:48:41;2.25;;;1.67;;
84133;SDS011;74235;48.688;9.708;2024-03-08T07:51:10;1.50;;;1.40;;
84133;SDS011;74235;48.688;9.708;2024-03-08T07:53:39;1.98;;;1.70;;
84133;SDS011;74235;48.688;9.708;2024-03-08T07:56:08;1.58;;;1.30;;
84133;SDS011;74235;48.688;9.708;2024-03-08T07:58:40;1.48;;;1.38;;
84133;SDS011;74235;48.688;9.708;2024-03-08T08:01:08;3.35;;;1.42;;
84133;SDS011;74235;48.688;9.708;2024-03-08T08:03:44;1.88;;;1.65;;
84133;SDS011;74235;48.688;9.708;2024-03-08T08:06:12;1.77;;;1.45;;
84133;SDS011;74235;48.688;9.708;2024-03-08T08:08:43;2.40;;;1.80;;
84133;SDS011;74235;48.688;9.708;2024-03-08T08:13:43;2.22;;;1.52;;
84133;SDS011;74235;48.688;9.708;2024-03-08T08:16:11;1.85;;;1.45;;
84133;SDS011;74235;48.688;9.708;2024-03-08T08:18:40;1.90;;;1.42;;
84133;SDS011;74235;48.688;9.708;2024-03-08T08:21:09;1.70;;;1.33;;
84133;SDS011;74235;48.688;9.708;2024-03-08T08:23:37;2.05;;;1.52;;
84133;SDS011;74235;48.688;9.708;2024-03-08T08:28:34;2.05;;;1.63;;
84133;SDS011;74235;48.688;9.708;2024-03-08T08:31:02;1.67;;;1.55;;
84133;SDS011;74235;48.688;9.708;2024-03-08T08:33:32;2.00;;;1.50;;
84133;SDS011;74235;48.688;9.708;2024-03-08T08:36:00;2.00;;;1.48;;
84133;SDS011;74235;48.688;9.708;2024-03-08T08:40:56;2.05;;;1.42;;
84133;SDS011;74235;48.688;9.708;2024-03-08T08:43:24;1.70;;;1.17;;
84133;SDS011;74235;48.688;9.708;2024-03-08T08:45:52;1.83;;;1.55;;
84133;SDS011;74235;48.688;9.708;2024-03-08T08:48:22;2.00;;;1.60;;
84133;SDS011;74235;48.688;9.708;2024-03-08T08:53:19;2.28;;;1.58;;
84133;SDS011;74235;48.688;9.708;2024-03-08T08:58:16;2.47;;;2.05;;
84133;SDS011;74235;48.688;9.708;2024-03-08T09:00:43;2.25;;;1.65;;
84133;SDS011;74235;48.688;9.708;2024-03-08T09:03:11;3.65;;;1.60;;
84133;SDS011;74235;48.688;9.708;2024-03-08T09:05:39;1.65;;;1.40;;
84133;SDS011;74235;48.688;9.708;2024-03-08T09:08:12;1.67;;;1.50;;
84133;SDS011;74235;48.688;9.708;2024-03-08T09:10:40;6.28;;;1.42;;
84133;SDS011;74235;48.688;9.708;2024-03-08T09:13:09;1.85;;;1.50;;
84133;SDS011;74235;48.688;9.708;2024-03-08T09:15:50;1.92;;;1.58;;
84133;SDS011;74235;48.688;9.708;2024-03-08T09:18:19;6.43;;;1.80;;
84133;SDS011;74235;48.688;9.708;2024-03-08T09:20:47;3.67;;;2.80;;
84133;SDS011;74235;48.688;9.708;2024-03-08T09:23:15;3.28;;;2.55;;
84133;SDS011;74235;48.688;9.708;2024-03-08T09:25:44;3.88;;;2.95;;
84133;SDS011;74235;48.688;9.708;2024-03-08T09:28:15;3.92;;;2.78;;
84133;SDS011;74235;48.688;9.708;2024-03-08T09:30:43;3.55;;;2.60;;
84133;SDS011;74235;48.688;9.708;2024-03-08T09:33:25;3.85;;;2.83;;
84133;SDS011;74235;48.688;9.708;2024-03-08T09:35:54;8.55;;;5.47;;
84133;SDS011;74235;48.688;9.708;2024-03-08T09:38:22;9.80;;;7.07;;
84133;SDS011;74235;48.688;9.708;2024-03-08T09:43:18;8.02;;;5.43;;
84133;SDS011;74235;48.688;9.708;2024-03-08T09:45:49;6.00;;;4.47;;
84133;SDS011;74235;48.688;9.708;2024-03-08T09:48:18;5.78;;;3.95;;
84133;SDS011;74235;48.688;9.708;2024-03-08T09:50:49;6.30;;;3.80;;
84133;SDS011;74235;48.688;9.708;2024-03-08T09:55:44;5.60;;;3.97;;
84133;SDS011;74235;48.688;9.708;2024-03-08T09:58:12;4.80;;;3.53;;
84133;SDS011;74235;48.688;9.708;2024-03-08T10:01:01;5.55;;;3.30;;
84133;SDS011;74235;48.688;9.708;2024-03-08T10:03:29;6.40;;;3.17;;
84133;SDS011;74235;48.688;9.708;2024-03-08T10:05:59;4.18;;;3.05;;
84133;SDS011;74235;48.688;9.708;2024-03-08T10:08:30;4.65;;;3.30;;
84133;SDS011;74235;48.688;9.708;2024-03-08T10:13:25;4.28;;;3.20;;
84133;SDS011;74235;48.688;9.708;2024-03-08T10:15:57;4.38;;;3.20;;
84133;SDS011;74235;48.688;9.708;2024-03-08T10:18:26;5.22;;;3.95;;
84133;SDS011;74235;48.688;9.708;2024-03-08T10:21:03;6.45;;;3.75;;
84133;SDS011;74235;48.688;9.708;2024-03-08T10:23:32;4.05;;;3.28;;
84133;SDS011;74235;48.688;9.708;2024-03-08T10:26:10;5.13;;;3.00;;
84133;SDS011;74235;48.688;9.708;2024-03-08T10:28:42;5.45;;;3.55;;
84133;SDS011;74235;48.688;9.708;2024-03-08T10:31:11;4.60;;;3.10;;
84133;SDS011;74235;48.688;9.708;2024-03-08T10:33:44;4.00;;;3.10;;
84133;SDS011;74235;48.688;9.708;2024-03-08T10:36:13;6.13;;;3.40;;
84133;SDS011;74235;48.688;9.708;2024-03-08T10:38:42;4.40;;;3.08;;
84133;SDS011;74235;48.688;9.708;2024-03-08T10:41:14;4.80;;;3.47;;
84133;SDS011;74235;48.688;9.708;2024-03-08T10:43:52;4.68;;;3.10;;
84133;SDS011;74235;48.688;9.708;2024-03-08T10:46:38;4.85;;;2.97;;
84133;SDS011;74235;48.688;9.708;2024-03-08T10:49:20;8.02;;;2.90;;
84133;SDS011;74235;48.688;9.708;2024-03-08T10:51:52;3.90;;;2.90;;
84133;SDS011;74235;48.688;9.708;2024-03-08T10:54:21;4.28;;;2.78;;
84133;SDS011;74235;48.688;9.708;2024-03-08T10:56:52;4.00;;;2.90;;
84133;SDS011;74235;48.688;9.708;2024-03-08T10:59:22;3.95;;;2.92;;
84133;SDS011;74235;48.688;9.708;2024-03-08T11:01:51;4.00;;;3.00;;
84133;SDS011;74235;48.688;9.708;2024-03-08T11:04:20;4.97;;;3.30;;
84133;SDS011;74235;48.688;9.708;2024-03-08T11:06:50;3.25;;;2.45;;
84133;SDS011;74235;48.688;9.708;2024-03-08T11:09:28;4.13;;;2.92;;
84133;SDS011;74235;48.688;9.708;2024-03-08T11:12:18;3.78;;;2.70;;
84133;SDS011;74235;48.688;9.708;2024-03-08T11:14:47;3.67;;;2.53;;
84133;SDS011;74235;48.688;9.708;2024-03-08T11:17:25;5.00;;;2.35;;
84133;SDS011;74235;48.688;9.708;2024-03-08T11:20:09;6.18;;;4.32;;
84133;SDS011;74235;48.688;9.708;2024-03-08T11:22:47;11.98;;;7.30;;
84133;SDS011;74235;48.688;9.708;2024-03-08T11:25:32;8.98;;;5.43;;
84133;SDS011;74235;48.688;9.708;2024-03-08T11:28:07;8.60;;;5.15;;
84133;SDS011;74235;48.688;9.708;2024-03-08T11:30:38;7.22;;;5.10;;
84133;SDS011;74235;48.688;9.708;2024-03-08T11:33:06;6.28;;;3.85;;
84133;SDS011;74235;48.688;9.708;2024-03-08T11:35:41;5.45;;;3.47;;
84133;SDS011;74235;48.688;9.708;2024-03-08T11:38:09;3.65;;;2.70;;
84133;SDS011;74235;48.688;9.708;2024-03-08T11:40:37;3.75;;;2.75;;
84133;SDS011;74235;48.688;9.708;2024-03-08T11:43:07;4.45;;;3.17;;
84133;SDS011;74235;48.688;9.708;2024-03-08T11:45:35;6.50;;;4.10;;
84133;SDS011;74235;48.688;9.708;2024-03-08T11:48:08;5.95;;;3.10;;
84133;SDS011;74235;48.688;9.708;2024-03-08T11:50:36;5.57;;;2.85;;
84133;SDS011;74235;48.688;9.708;2024-03-08T11:53:06;3.85;;;2.20;;
84133;SDS011;74235;48.688;9.708;2024-03-08T11:55:34;4.90;;;2.53;;
84133;SDS011;74235;48.688;9.708;2024-03-08T11:58:03;4.07;;;3.08;;
84133;SDS011;74235;48.688;9.708;2024-03-08T12:00:31;7.22;;;3.42;;
84133;SDS011;74235;48.688;9.708;2024-03-08T12:03:03;6.35;;;3.53;;
84133;SDS011;74235;48.688;9.708;2024-03-08T12:05:34;5.70;;;3.72;;
84133;SDS011;74235;48.688;9.708;2024-03-08T12:08:02;7.82;;;4.28;;
84133;SDS011;74235;48.688;9.708;2024-03-08T12:10:33;5.47;;;3.47;;
84133;SDS011;74235;48.688;9.708;2024-03-08T12:13:02;5.45;;;3.50;;
84133;SDS011;74235;48.688;9.708;2024-03-08T12:15:33;4.82;;;3.22;;
84133;SDS011;74235;48.688;9.708;2024-03-08T12:18:01;6.65;;;3.90;;
84133;SDS011;74235;48.688;9.708;2024-03-08T12:20:32;5.18;;;3.70;;
84133;SDS011;74235;48.688;9.708;2024-03-08T12:22:59;9.18;;;3.55;;
84133;SDS011;74235;48.688;9.708;2024-03-08T12:25:27;7.18;;;4.28;;
84133;SDS011;74235;48.688;9.708;2024-03-08T12:28:08;8.48;;;5.70;;
84133;SDS011;74235;48.688;9.708;2024-03-08T12:30:46;10.60;;;6.35;;
84133;SDS011;74235;48.688;9.708;2024-03-08T12:33:15;7.63;;;5.55;;
84133;SDS011;74235;48.688;9.708;2024-03-08T12:35:49;7.40;;;4.53;;
84133;SDS011;74235;48.688;9.708;2024-03-08T12:38:21;7.70;;;4.70;;
84133;SDS011;74235;48.688;9.708;2024-03-08T12:40:55;5.25;;;3.72;;
84133;SDS011;74235;48.688;9.708;2024-03-08T12:43:26;5.88;;;4.40;;
84133;SDS011;74235;48.688;9.708;2024-03-08T12:48:26;5.68;;;3.63;;
84133;SDS011;74235;48.688;9.708;2024-03-08T12:50:54;4.75;;;3.45;;
84133;SDS011;74235;48.688;9.708;2024-03-08T12:53:22;4.28;;;2.90;;
84133;SDS011;74235;48.688;9.708;2024-03-08T12:55:50;5.65;;;3.55;;
84133;SDS011;74235;48.688;9.708;2024-03-08T12:58:19;4.50;;;3.50;;
84133;SDS011;74235;48.688;9.708;2024-03-08T13:00:50;4.35;;;3.03;;
84133;SDS011;74235;48.688;9.708;2024-03-08T13:03:20;5.47;;;3.47;;
84133;SDS011;74235;48.688;9.708;2024-03-08T13:05:50;5.15;;;2.80;;
84133;SDS011;74235;48.688;9.708;2024-03-08T13:08:18;4.60;;;3.00;;
84133;SDS011;74235;48.688;9.708;2024-03-08T13:10:45;4.05;;;3.00;;
84133;SDS011;74235;48.688;9.708;2024-03-08T13:13:13;5.90;;;3.28;;
84133;SDS011;74235;48.688;9.708;2024-03-08T13:15:44;7.07;;;3.20;;
84133;SDS011;74235;48.688;9.708;2024-03-08T13:18:14;4.18;;;3.10;;
84133;SDS011;74235;48.688;9.708;2024-03-08T13:20:43;5.22;;;3.22;;
84133;SDS011;74235;48.688;9.708;2024-03-08T13:23:16;4.10;;;2.83;;
84133;SDS011;74235;48.688;9.708;2024-03-08T13:25:44;4.63;;;2.90;;
84133;SDS011;74235;48.688;9.708;2024-03-08T13:28:15;4.05;;;2.80;;
84133;SDS011;74235;48.688;9.708;2024-03-08T13:30:44;4.25;;;2.75;;
84133;SDS011;74235;48.688;9.708;2024-03-08T13:33:13;4.78;;;2.63;;
84133;SDS011;74235;48.688;9.708;2024-03-08T13:35:42;3.97;;;2.53;;
84133;SDS011;74235;48.688;9.708;2024-03-08T13:38:09;5.05;;;3.33;;
84133;SDS011;74235;48.688;9.708;2024-03-08T13:40:40;5.78;;;3.85;;
84133;SDS011;74235;48.688;9.708;2024-03-08T13:43:08;5.47;;;3.55;;
84133;SDS011;74235;48.688;9.708;2024-03-08T13:45:36;4.88;;;3.22;;
84133;SDS011;74235;48.688;9.708;2024-03-08T13:48:08;6.30;;;3.15;;
84133;SDS011;74235;48.688;9.708;2024-03-08T13:50:41;6.75;;;2.92;;
84133;SDS011;74235;48.688;9.708;2024-03-08T13:53:09;6.03;;;3.00;;
84133;SDS011;74235;48.688;9.708;2024-03-08T13:55:37;4.43;;;3.38;;
84133;SDS011;74235;48.688;9.708;2024-03-08T13:58:05;4.15;;;2.85;;
84133;SDS011;74235;48.688;9.708;2024-03-08T14:00:36;5.05;;;3.15;;
84133;SDS011;74235;48.688;9.708;2024-03-08T14:03:04;5.90;;;3.95;;
84133;SDS011;74235;48.688;9.708;2024-03-08T14:05:38;7.15;;;4.93;;
84133;SDS011;74235;48.688;9.708;2024-03-08T14:08:08;9.10;;;6.93;;
84133;SDS011;74235;48.688;9.708;2024-03-08T14:10:36;7.97;;;5.50;;
84133;SDS011;74235;48.688;9.708;2024-03-08T14:13:06;9.10;;;6.78;;
84133;SDS011;74235;48.688;9.708;2024-03-08T14:15:34;7.18;;;4.90;;
84133;SDS011;74235;48.688;9.708;2024-03-08T14:18:02;7.72;;;5.68;;
84133;SDS011;74235;48.688;9.708;2024-03-08T14:20:34;11.43;;;7.72;;
84133;SDS011;74235;48.688;9.708;2024-03-08T14:23:02;6.20;;;5.25;;
84133;SDS011;74235;48.688;9.708;2024-03-08T14:25:31;9.25;;;6.40;;
84133;SDS011;74235;48.688;9.708;2024-03-08T14:28:00;8.30;;;6.00;;
84133;SDS011;74235;48.688;9.708;2024-03-08T14:33:03;9.05;;;6.50;;
84133;SDS011;74235;48.688;9.708;2024-03-08T14:35:33;10.88;;;7.57;;
84133;SDS011;74235;48.688;9.708;2024-03-08T14:38:01;7.22;;;5.20;;
84133;SDS011;74235;48.688;9.708;2024-03-08T14:40:31;7.45;;;5.50;;
84133;SDS011;74235;48.688;9.708;2024-03-08T14:42:59;7.03;;;5.20;;
84133;SDS011;74235;48.688;9.708;2024-03-08T14:45:32;10.63;;;6.35;;
84133;SDS011;74235;48.688;9.708;2024-03-08T14:48:00;9.75;;;6.40;;
84133;SDS011;74235;48.688;9.708;2024-03-08T14:50:28;10.85;;;6.88;;
84133;SDS011;74235;48.688;9.708;2024-03-08T14:52:56;8.93;;;5.85;;
84133;SDS011;74235;48.688;9.708;2024-03-08T14:57:53;12.20;;;5.15;;
84133;SDS011;74235;48.688;9.708;2024-03-08T15:00:21;7.90;;;5.70;;
84133;SDS011;74235;48.688;9.708;2024-03-08T15:03:01;8.63;;;6.30;;
84133;SDS011;74235;48.688;9.708;2024-03-08T15:05:34;11.68;;;7.85;;
84133;SDS011;74235;48.688;9.708;2024-03-08T15:08:06;9.20;;;5.50;;
84133;SDS011;74235;48.688;9.708;2024-03-08T15:10:39;10.77;;;6.35;;
84133;SDS011;74235;48.688;9.708;2024-03-08T15:13:10;9.30;;;5.13;;
84133;SDS011;74235;48.688;9.708;2024-03-08T15:15:49;8.75;;;5.03;;
84133;SDS011;74235;48.688;9.708;2024-03-08T15:18:22;10.02;;;7.45;;
84133;SDS011;74235;48.688;9.708;2024-03-08T15:20:55;7.43;;;5.60;;
84133;SDS011;74235;48.688;9.708;2024-03-08T15:23:23;8.00;;;5.30;;
84133;SDS011;74235;48.688;9.708;2024-03-08T15:25:52;8.25;;;6.15;;
84133;SDS011;74235;48.688;9.708;2024-03-08T15:28:21;10.10;;;6.63;;
84133;SDS011;74235;48.688;9.708;2024-03-08T15:30:54;7.53;;;4.72;;
84133;SDS011;74235;48.688;9.708;2024-03-08T15:33:23;7.07;;;3.85;;
84133;SDS011;74235;48.688;9.708;2024-03-08T15:35:54;4.93;;;3.40;;
84133;SDS011;74235;48.688;9.708;2024-03-08T15:38:27;4.75;;;3.30;;
84133;SDS011;74235;48.688;9.708;2024-03-08T15:43:24;3.80;;;2.65;;
84133;SDS011;74235;48.688;9.708;2024-03-08T15:45:53;8.40;;;2.72;;
84133;SDS011;74235;48.688;9.708;2024-03-08T15:48:23;5.82;;;2.70;;
84133;SDS011;74235;48.688;9.708;2024-03-08T15:50:51;2.72;;;2.20;;
84133;SDS011;74235;48.688;9.708;2024-03-08T15:53:18;3.47;;;2.42;;
84133;SDS011;74235;48.688;9.708;2024-03-08T15:55:46;3.20;;;2.17;;
84133;SDS011;74235;48.688;9.708;2024-03-08T15:58:15;3.40;;;2.42;;
84133;SDS011;74235;48.688;9.708;2024-03-08T16:00:44;3.13;;;2.20;;
84133;SDS011;74235;48.688;9.708;2024-03-08T16:03:14;3.42;;;2.65;;
84133;SDS011;74235;48.688;9.708;2024-03-08T16:05:43;4.03;;;2.60;;
84133;SDS011;74235;48.688;9.708;2024-03-08T16:08:12;2.95;;;2.30;;
84133;SDS011;74235;48.688;9.708;2024-03-08T16:10:44;4.75;;;2.45;;
84133;SDS011;74235;48.688;9.708;2024-03-08T16:13:16;3.05;;;2.10;;
84133;SDS011;74235;48.688;9.708;2024-03-08T16:15:46;3.95;;;2.17;;
84133;SDS011;74235;48.688;9.708;2024-03-08T16:18:18;3.00;;;2.00;;